Time,TemperatureF,DewpointF,PressureIn,WindDirection,WindDirectionDegrees,WindSpeedMPH,WindSpeedGustMPH,Humidity,HourlyPrecipIn,Conditions,Clouds,dailyrainin,SolarRadiationWatts/m^2,SoftwareType,DateUTC
2013-09-04 00:03:00,52.4,51.0,30.01,West,265,0.0,0.0,95,0.00,FEW,,0.00,0.0,WeatherDisplay:10.37,2013-09-04 05:03:00,
2013-09-04 00:08:00,52.4,51.0,30.01,West,265,0.0,0.0,95,0.00,FEW,,0.00,0.0,WeatherDisplay:10.37,2013-09-04 05:08:00,
2013-09-04 00:13:00,52.3,50.9,30.01,West,265,0.0,0.0,95,0.00,FEW,,0.00,0.0,WeatherDisplay:10.37,2013-09-04 05:13:00,
2013-09-04 00:18:00,52.3,50.9,30.01,West,265,0.0,0.0,95,0.00,FEW,,0.00,0.0,WeatherDisplay:10.37,2013-09-04 05:18:00,
2013-09-04 00:23:00,52.4,51.0,30.01,West,265,0.0,0.0,95,0.00,FEW,,0.00,0.0,WeatherDisplay:10.37,2013-09-04 05:23:00,
2013-09-04 00:28:00,52.5,51.4,30.01,West,265,0.0,0.0,96,0.00,FEW,,0.00,0.0,WeatherDisplay:10.37,2013-09-04 05:28:00,
2013-09-04 00:33:00,52.6,51.5,30.01,West,265,0.0,0.0,96,0.00,FEW,,0.00,0.0,WeatherDisplay:10.37,2013-09-04 05:33:00,
2013-09-04 00:38:00,52.7,51.6,30.01,West,265,0.0,0.0,96,0.00,FEW,,0.00,0.0,WeatherDisplay:10.37,2013-09-04 05:38:00,
2013-09-04 00:44:00,52.8,51.7,30.01,West,265,0.0,0.0,96,0.00,FEW,,0.00,0.0,WeatherDisplay:10.37,2013-09-04 05:44:00,
2013-09-04 00:49:00,52.8,51.7,30.01,West,265,0.0,0.0,96,0.00,FEW,,0.00,0.0,WeatherDisplay:10.37,2013-09-04 05:49:00,
2013-09-04 00:54:00,52.8,51.7,30.01,West,265,0.0,0.0,96,0.00,FEW,,0.00,0.0,WeatherDisplay:10.37,2013-09-04 05:54:00,
2013-09-04 00:59:00,52.8,51.7,30.00,West,265,0.0,0.0,96,0.00,FEW,,0.00,0.0,WeatherDisplay:10.37,2013-09-04 05:59:00,
2013-09-04 01:04:00,52.9,51.8,30.00,West,265,0.0,0.0,96,0.00,CLR,,0.00,0.0,WeatherDisplay:10.37,2013-09-04 06:04:00,
2013-09-04 01:09:00,53.0,51.9,30.00,West,265,0.0,0.0,96,0.00,CLR,,0.00,0.0,WeatherDisplay:10.37,2013-09-04 06:09:00,
2013-09-04 01:14:00,53.0,51.9,30.01,West,265,0.0,0.0,96,0.00,CLR,,0.00,0.0,WeatherDisplay:10.37,2013-09-04 06:14:00,
2013-09-04 01:19:00,52.9,51.8,30.01,West,265,0.0,0.0,96,0.00,CLR,,0.00,0.0,WeatherDisplay:10.37,2013-09-04 06:19:00,
2013-09-04 01:24:00,52.9,51.8,30.01,West,265,0.0,0.0,96,0.00,CLR,,0.00,0.0,WeatherDisplay:10.37,2013-09-04 06:24:00,
2013-09-04 01:29:00,52.8,51.7,30.01,West,265,0.0,0.0,96,0.00,CLR,,0.00,0.0,WeatherDisplay:10.37,2013-09-04 06:29:00,
2013-09-04 01:34:00,52.7,51.6,30.01,West,265,0.0,0.0,96,0.00,CLR,,0.00,0.0,WeatherDisplay:10.37,2013-09-04 06:34:00,
2013-09-04 01:39:00,52.6,51.2,30.01,West,265,0.0,0.0,95,0.00,CLR,,0.00,0.0,WeatherDisplay:10.37,2013-09-04 06:39:00,
2013-09-04 01:44:00,52.5,51.1,30.01,West,265,0.0,0.0,95,0.00,CLR,,0.00,0.0,WeatherDisplay:10.37,2013-09-04 06:44:00,
2013-09-04 01:49:00,52.4,51.0,30.01,West,265,0.0,0.0,95,0.00,CLR,,0.00,0.0,WeatherDisplay:10.37,2013-09-04 06:49:00,
2013-09-04 01:54:00,52.3,50.9,30.01,West,265,0.0,0.0,95,0.00,CLR,,0.00,0.0,WeatherDisplay:10.37,2013-09-04 06:54:00,
2013-09-04 01:59:00,52.2,50.8,30.01,West,265,0.0,0.0,95,0.00,CLR,,0.00,0.0,WeatherDisplay:10.37,2013-09-04 06:59:00,
2013-09-04 02:04:00,52.1,50.7,30.01,West,265,0.0,0.0,95,0.00,CLR,,0.00,0.0,WeatherDisplay:10.37,2013-09-04 07:04:00,
2013-09-04 02:09:00,52.0,50.6,30.01,West,265,0.0,0.0,95,0.00,CLR,,0.00,0.0,WeatherDisplay:10.37,2013-09-04 07:09:00,
2013-09-04 02:14:00,51.9,50.5,30.01,West,265,0.0,0.0,95,0.00,CLR,,0.00,0.0,WeatherDisplay:10.37,2013-09-04 07:14:00,
2013-09-04 02:19:00,51.8,50.4,30.01,West,265,0.0,0.0,95,0.00,CLR,,0.00,0.0,WeatherDisplay:10.37,2013-09-04 07:19:00,
2013-09-04 02:24:00,51.8,50.4,30.01,West,265,0.0,0.0,95,0.00,CLR,,0.00,0.0,WeatherDisplay:10.37,2013-09-04 07:24:00,
2013-09-04 02:29:00,51.7,50.3,30.01,West,265,0.0,0.0,95,0.00,CLR,,0.00,0.0,WeatherDisplay:10.37,2013-09-04 07:29:00,
2013-09-04 02:34:00,51.7,50.6,30.01,West,265,0.0,0.0,96,0.00,CLR,,0.00,0.0,WeatherDisplay:10.37,2013-09-04 07:34:00,
2013-09-04 02:39:00,51.6,50.5,30.01,West,265,0.0,0.0,96,0.00,CLR,,0.00,0.0,WeatherDisplay:10.37,2013-09-04 07:39:00,
2013-09-04 02:44:00,51.6,50.5,30.01,West,265,0.0,0.0,96,0.00,CLR,,0.00,0.0,WeatherDisplay:10.37,2013-09-04 07:44:00,
2013-09-04 02:49:00,51.6,50.5,30.01,West,265,0.0,0.0,96,0.00,CLR,,0.00,0.0,WeatherDisplay:10.37,2013-09-04 07:49:00,
2013-09-04 02:54:00,51.6,50.5,30.01,West,265,0.0,0.0,96,0.00,CLR,,0.00,0.0,WeatherDisplay:10.37,2013-09-04 07:54:00,
2013-09-04 02:59:00,51.6,50.5,30.01,West,265,0.0,0.0,96,0.00,CLR,,0.00,0.0,WeatherDisplay:10.37,2013-09-04 07:59:00,
2013-09-04 03:04:00,51.5,50.4,30.01,West,265,0.0,0.0,96,0.00,FEW,,0.00,0.0,WeatherDisplay:10.37,2013-09-04 08:04:00,
2013-09-04 03:09:00,51.5,50.4,30.01,West,265,0.0,0.0,96,0.00,FEW,,0.00,0.0,WeatherDisplay:10.37,2013-09-04 08:09:00,
2013-09-04 03:14:00,51.4,50.3,30.01,West,265,0.0,0.0,96,0.00,FEW,,0.00,0.0,WeatherDisplay:10.37,2013-09-04 08:14:00,
2013-09-04 03:19:00,51.4,50.3,30.01,West,265,0.0,0.0,96,0.00,FEW,,0.00,0.0,WeatherDisplay:10.37,2013-09-04 08:19:00,
2013-09-04 03:24:00,51.4,50.3,30.01,West,265,0.0,0.0,96,0.00,FEW,,0.00,0.0,WeatherDisplay:10.37,2013-09-04 08:24:00,
2013-09-04 03:29:00,51.3,50.2,30.01,West,265,0.0,0.0,96,0.00,FEW,,0.00,0.0,WeatherDisplay:10.37,2013-09-04 08:29:00,
2013-09-04 03:34:00,51.3,50.2,30.01,West,265,0.0,0.0,96,0.00,FEW,,0.00,0.0,WeatherDisplay:10.37,2013-09-04 08:34:00,
2013-09-04 03:39:00,51.3,50.2,30.01,West,265,0.0,0.0,96,0.00,FEW,,0.00,0.0,WeatherDisplay:10.37,2013-09-04 08:39:00,
2013-09-04 03:44:00,51.3,50.2,30.01,West,265,0.0,0.0,96,0.00,FEW,,0.00,0.0,WeatherDisplay:10.37,2013-09-04 08:44:00,
2013-09-04 03:49:00,51.3,50.2,30.01,West,265,0.0,0.0,96,0.00,FEW,,0.00,0.0,WeatherDisplay:10.37,2013-09-04 08:49:00,
2013-09-04 03:54:00,51.3,50.2,30.01,West,265,0.0,0.0,96,0.00,FEW,,0.00,0.0,WeatherDisplay:10.37,2013-09-04 08:54:00,
2013-09-04 03:59:00,51.4,50.3,30.01,West,265,0.0,0.0,96,0.00,FEW,,0.00,0.0,WeatherDisplay:10.37,2013-09-04 08:59:00,
2013-09-04 04:04:00,51.4,50.3,30.01,West,265,0.0,0.0,96,0.00,CLR,,0.00,0.0,WeatherDisplay:10.37,2013-09-04 09:04:00,
2013-09-04 04:09:00,51.4,50.3,30.01,West,265,0.0,0.0,96,0.00,CLR,,0.00,0.0,WeatherDisplay:10.37,2013-09-04 09:09:00,
2013-09-04 04:14:00,51.4,50.3,30.01,West,265,0.0,0.0,96,0.00,CLR,,0.00,0.0,WeatherDisplay:10.37,2013-09-04 09:14:00,
2013-09-04 04:19:00,51.4,50.3,30.01,West,265,0.0,0.0,96,0.00,CLR,,0.00,0.0,WeatherDisplay:10.37,2013-09-04 09:19:00,
2013-09-04 04:24:00,51.5,50.7,30.01,West,265,0.0,0.0,97,0.00,CLR,,0.00,0.0,WeatherDisplay:10.37,2013-09-04 09:24:00,
2013-09-04 04:29:00,51.6,50.8,30.01,West,265,0.0,0.0,97,0.00,CLR,,0.00,0.0,WeatherDisplay:10.37,2013-09-04 09:29:00,
2013-09-04 04:34:00,51.7,50.9,30.01,West,265,0.0,0.0,97,0.00,CLR,,0.00,0.0,WeatherDisplay:10.37,2013-09-04 09:34:00,
2013-09-04 04:39:00,51.7,50.9,30.01,West,265,0.0,0.0,97,0.00,CLR,,0.00,0.0,WeatherDisplay:10.37,2013-09-04 09:39:00,
2013-09-04 04:44:00,51.8,51.0,30.01,West,265,0.0,0.0,97,0.00,CLR,,0.00,0.0,WeatherDisplay:10.37,2013-09-04 09:44:00,
2013-09-04 04:49:00,52.0,51.2,30.01,West,265,0.0,0.0,97,0.00,CLR,,0.00,0.0,WeatherDisplay:10.37,2013-09-04 09:49:00,
2013-09-04 04:54:00,52.1,51.3,30.01,West,265,0.0,0.0,97,0.00,CLR,,0.00,0.0,WeatherDisplay:10.37,2013-09-04 09:54:00,
2013-09-04 04:59:00,52.3,51.5,30.01,West,265,0.0,0.0,97,0.00,CLR,,0.00,0.0,WeatherDisplay:10.37,2013-09-04 09:59:00,
2013-09-04 05:04:00,52.4,51.6,30.02,West,265,0.0,0.0,97,0.00,CLR,,0.00,0.0,WeatherDisplay:10.37,2013-09-04 10:04:00,
2013-09-04 05:09:00,52.5,51.7,30.01,West,265,0.0,0.0,97,0.00,CLR,,0.00,0.0,WeatherDisplay:10.37,2013-09-04 10:09:00,
2013-09-04 05:14:00,52.6,51.8,30.01,West,265,0.0,0.0,97,0.00,CLR,,0.00,0.0,WeatherDisplay:10.37,2013-09-04 10:14:00,
2013-09-04 05:19:00,52.6,51.8,30.02,West,265,0.0,0.0,97,0.00,CLR,,0.00,0.0,WeatherDisplay:10.37,2013-09-04 10:19:00,
2013-09-04 05:24:00,52.7,51.9,30.02,West,265,0.0,0.0,97,0.00,CLR,,0.00,0.0,WeatherDisplay:10.37,2013-09-04 10:24:00,
2013-09-04 05:29:00,52.7,51.9,30.02,West,265,0.0,0.0,97,0.00,CLR,,0.00,0.0,WeatherDisplay:10.37,2013-09-04 10:29:00,
2013-09-04 05:34:00,52.7,51.9,30.02,West,265,0.0,0.0,97,0.00,CLR,,0.00,0.0,WeatherDisplay:10.37,2013-09-04 10:34:00,
2013-09-04 05:39:00,52.7,51.9,30.03,West,265,0.0,0.0,97,0.00,CLR,,0.00,0.0,WeatherDisplay:10.37,2013-09-04 10:39:00,
2013-09-04 05:44:00,52.7,51.9,30.03,West,265,0.0,0.0,97,0.00,CLR,,0.00,0.0,WeatherDisplay:10.37,2013-09-04 10:44:00,
2013-09-04 05:49:00,52.7,51.9,30.03,West,265,0.0,0.0,97,0.00,CLR,,0.00,0.0,WeatherDisplay:10.37,2013-09-04 10:49:00,
2013-09-04 05:54:00,52.7,51.9,30.03,West,265,0.0,0.0,97,0.00,CLR,,0.00,0.0,WeatherDisplay:10.37,2013-09-04 10:54:00,
2013-09-04 05:59:00,52.7,51.9,30.03,West,265,0.0,0.0,97,0.00,CLR,,0.00,0.0,WeatherDisplay:10.37,2013-09-04 10:59:00,
2013-09-04 06:04:00,52.7,51.9,30.03,West,265,0.0,0.0,97,0.00,FEW,,0.00,0.0,WeatherDisplay:10.37,2013-09-04 11:04:00,
2013-09-04 06:09:00,52.6,51.8,30.04,West,265,0.0,0.0,97,0.00,FEW,,0.00,0.0,WeatherDisplay:10.37,2013-09-04 11:09:00,
2013-09-04 06:14:00,52.5,51.7,30.04,West,265,0.0,0.0,97,0.00,FEW,,0.00,0.0,WeatherDisplay:10.37,2013-09-04 11:14:00,
2013-09-04 06:20:00,52.4,51.6,30.04,West,265,0.0,0.0,97,0.00,FEW,,0.00,0.0,WeatherDisplay:10.37,2013-09-04 11:20:00,
2013-09-04 06:25:00,52.4,51.6,30.04,West,265,0.0,0.0,97,0.00,FEW,,0.00,0.0,WeatherDisplay:10.37,2013-09-04 11:25:00,
2013-09-04 06:30:00,52.4,51.6,30.04,West,265,0.0,0.0,97,0.00,FEW,,0.00,0.0,WeatherDisplay:10.37,2013-09-04 11:30:00,
2013-09-04 06:35:00,52.3,51.5,30.04,West,265,0.0,0.0,97,0.00,FEW,,0.00,0.0,WeatherDisplay:10.37,2013-09-04 11:35:00,
2013-09-04 06:40:00,52.3,51.5,30.05,West,265,0.0,0.0,97,0.00,FEW,,0.00,5.0,WeatherDisplay:10.37,2013-09-04 11:40:00,
2013-09-04 06:45:00,52.3,51.5,30.05,West,265,0.0,0.0,97,0.00,FEW,,0.00,7.0,WeatherDisplay:10.37,2013-09-04 11:45:00,
2013-09-04 06:50:00,52.5,51.7,30.05,West,265,0.0,0.0,97,0.00,FEW,,0.00,9.0,WeatherDisplay:10.37,2013-09-04 11:50:00,
2013-09-04 06:55:00,52.5,51.7,30.05,West,265,0.0,0.0,97,0.00,FEW,,0.00,11.0,WeatherDisplay:10.37,2013-09-04 11:55:00,
2013-09-04 07:00:00,52.7,51.9,30.05,West,265,0.0,0.0,97,0.00,FEW,,0.00,12.0,WeatherDisplay:10.37,2013-09-04 12:00:00,
2013-09-04 07:05:00,52.8,52.0,30.05,West,265,0.0,0.0,97,0.00,CLR,,0.00,16.0,WeatherDisplay:10.37,2013-09-04 12:05:00,
2013-09-04 07:10:00,53.0,52.2,30.06,West,265,0.0,0.0,97,0.00,CLR,,0.00,16.0,WeatherDisplay:10.37,2013-09-04 12:10:00,
2013-09-04 07:15:00,53.2,52.4,30.06,West,265,0.0,0.0,97,0.00,CLR,,0.00,18.0,WeatherDisplay:10.37,2013-09-04 12:15:00,
2013-09-04 07:20:00,53.3,52.8,30.06,West,265,0.0,0.0,98,0.00,CLR,,0.00,19.0,WeatherDisplay:10.37,2013-09-04 12:20:00,
2013-09-04 07:25:00,53.5,52.9,30.06,West,265,0.0,0.0,98,0.00,CLR,,0.00,30.0,WeatherDisplay:10.37,2013-09-04 12:25:00,
2013-09-04 07:30:00,53.9,53.3,30.06,West,265,1.1,1.1,98,0.00,CLR,,0.00,37.0,WeatherDisplay:10.37,2013-09-04 12:30:00,
2013-09-04 07:35:00,54.3,53.7,30.06,West,265,0.0,0.0,98,0.00,BKN,,0.00,46.0,WeatherDisplay:10.37,2013-09-04 12:35:00,
2013-09-04 07:40:00,54.7,54.1,30.06,West,265,0.0,0.0,98,0.00,BKN,,0.00,51.0,WeatherDisplay:10.37,2013-09-04 12:40:00,
2013-09-04 07:45:00,55.3,54.7,30.07,West,265,0.0,0.0,98,0.00,BKN,,0.00,60.0,WeatherDisplay:10.37,2013-09-04 12:45:00,
2013-09-04 07:50:00,56.0,55.4,30.07,West,265,0.0,0.0,98,0.00,BKN,,0.00,69.0,WeatherDisplay:10.37,2013-09-04 12:50:00,
2013-09-04 07:55:00,57.0,56.4,30.07,West,265,0.0,0.0,98,0.00,BKN,,0.00,76.0,WeatherDisplay:10.37,2013-09-04 12:55:00,
2013-09-04 08:00:00,58.0,57.4,30.07,West,265,1.1,0.0,98,0.00,BKN,,0.00,86.0,WeatherDisplay:10.37,2013-09-04 13:00:00,
2013-09-04 08:05:00,58.9,58.3,30.07,West,265,0.0,0.0,98,0.00,OVC,,0.00,97.0,WeatherDisplay:10.37,2013-09-04 13:05:00,
2013-09-04 08:10:00,59.6,59.0,30.08,West,275,0.0,0.1,98,0.00,OVC,,0.00,95.0,WeatherDisplay:10.37,2013-09-04 13:10:00,
2013-09-04 08:15:00,60.2,59.6,30.08,NW,325,0.0,0.0,98,0.00,OVC,,0.00,105.0,WeatherDisplay:10.37,2013-09-04 13:15:00,
2013-09-04 08:20:00,60.6,60.3,30.08,North,5,1.1,1.1,99,0.00,OVC,,0.00,63.0,WeatherDisplay:10.37,2013-09-04 13:20:00,
2013-09-04 08:25:00,60.9,60.3,30.08,West,277,1.1,1.1,98,0.00,OVC,,0.00,60.0,WeatherDisplay:10.37,2013-09-04 13:25:00,
2013-09-04 08:30:00,61.1,60.8,30.08,WNW,293,0.0,0.0,99,0.00,OVC,,0.00,70.0,WeatherDisplay:10.37,2013-09-04 13:30:00,
2013-09-04 08:35:00,61.3,61.0,30.08,WNW,294,0.0,0.0,99,0.00,OVC,,0.00,114.0,WeatherDisplay:10.37,2013-09-04 13:35:00,
2013-09-04 08:40:00,61.6,61.0,30.08,North,350,1.1,1.1,98,0.00,OVC,,0.00,105.0,WeatherDisplay:10.37,2013-09-04 13:40:00,
2013-09-04 08:45:00,61.8,61.5,30.08,North,350,0.0,0.0,99,0.00,OVC,,0.00,83.0,WeatherDisplay:10.37,2013-09-04 13:45:00,
2013-09-04 08:50:00,62.0,61.4,30.09,North,350,1.1,1.1,98,0.00,OVC,,0.00,86.0,WeatherDisplay:10.37,2013-09-04 13:50:00,
2013-09-04 08:55:00,62.1,61.2,30.09,North,350,0.0,0.0,97,0.00,OVC,,0.00,84.0,WeatherDisplay:10.37,2013-09-04 13:55:00,
2013-09-04 09:00:00,62.2,60.8,30.09,ESE,109,0.0,0.0,95,0.00,OVC,,0.00,70.0,WeatherDisplay:10.37,2013-09-04 14:00:00,
2013-09-04 09:05:00,62.3,60.6,30.09,NW,316,1.1,1.1,94,0.00,OVC,,0.00,102.0,WeatherDisplay:10.37,2013-09-04 14:05:00,
2013-09-04 09:10:00,62.4,60.3,30.09,NW,316,0.0,0.0,93,0.00,OVC,,0.00,156.0,WeatherDisplay:10.37,2013-09-04 14:10:00,
2013-09-04 09:15:00,62.6,60.2,30.09,North,350,2.3,2.3,92,0.00,OVC,,0.00,127.0,WeatherDisplay:10.37,2013-09-04 14:15:00,
2013-09-04 09:20:00,62.9,60.5,30.09,North,350,0.0,0.0,92,0.00,OVC,,0.00,169.0,WeatherDisplay:10.37,2013-09-04 14:20:00,
2013-09-04 09:25:00,63.1,60.7,30.09,NNW,339,1.1,1.1,92,0.00,OVC,,0.00,97.0,WeatherDisplay:10.37,2013-09-04 14:25:00,
2013-09-04 09:30:00,63.2,60.2,30.09,NNW,340,1.1,0.0,90,0.00,OVC,,0.00,142.0,WeatherDisplay:10.37,2013-09-04 14:30:00,
2013-09-04 09:35:00,63.4,60.4,30.09,East,79,1.1,1.1,90,0.00,SCT,,0.00,63.0,WeatherDisplay:10.37,2013-09-04 14:35:00,
2013-09-04 09:40:00,63.7,60.7,30.10,East,80,1.1,1.1,90,0.00,SCT,,0.00,88.0,WeatherDisplay:10.37,2013-09-04 14:40:00,
2013-09-04 09:45:00,64.0,60.7,30.10,East,82,2.3,2.3,89,0.00,SCT,,0.00,81.0,WeatherDisplay:10.37,2013-09-04 14:45:00,
2013-09-04 09:50:00,64.2,60.9,30.10,East,82,1.1,1.1,89,0.00,SCT,,0.00,167.0,WeatherDisplay:10.37,2013-09-04 14:50:00,
2013-09-04 09:55:00,64.6,61.0,30.10,WSW,238,1.1,1.1,88,0.00,SCT,,0.00,204.0,WeatherDisplay:10.37,2013-09-04 14:55:00,
2013-09-04 10:00:00,65.1,61.5,30.10,NE,36,1.1,1.1,88,0.00,SCT,,0.00,213.0,WeatherDisplay:10.37,2013-09-04 15:00:00,
2013-09-04 10:05:00,65.4,61.4,30.11,North,5,3.5,3.5,87,0.00,BKN,,0.00,202.0,WeatherDisplay:10.37,2013-09-04 15:05:00,
2013-09-04 10:10:00,65.5,60.9,30.11,NNE,14,1.0,0.0,85,0.00,BKN,,0.00,200.0,WeatherDisplay:10.37,2013-09-04 15:10:00,
2013-09-04 10:15:00,65.5,60.9,30.11,NNE,23,0.0,0.4,85,0.00,BKN,,0.00,246.0,WeatherDisplay:10.37,2013-09-04 15:15:00,
2013-09-04 10:20:00,65.6,60.6,30.11,NNE,25,0.0,0.1,84,0.00,BKN,,0.00,139.0,WeatherDisplay:10.37,2013-09-04 15:20:00,
2013-09-04 10:25:00,65.6,60.6,30.12,ENE,68,1.1,0.0,84,0.00,BKN,,0.00,134.0,WeatherDisplay:10.37,2013-09-04 15:25:00,
2013-09-04 10:30:00,65.6,60.6,30.12,ENE,71,2.0,2.0,84,0.00,BKN,,0.00,162.0,WeatherDisplay:10.37,2013-09-04 15:30:00,
2013-09-04 10:35:00,65.4,60.8,30.12,ENE,71,1.1,0.0,85,0.00,BKN,,0.00,202.0,WeatherDisplay:10.37,2013-09-04 15:35:00,
2013-09-04 10:40:00,65.2,60.6,30.12,ENE,73,1.1,1.1,85,0.00,BKN,,0.00,188.0,WeatherDisplay:10.37,2013-09-04 15:40:00,
2013-09-04 10:45:00,65.2,60.2,30.12,East,80,1.1,1.1,84,0.00,BKN,,0.00,192.0,WeatherDisplay:10.37,2013-09-04 15:45:00,
2013-09-04 10:50:00,65.5,60.5,30.12,ESE,110,3.5,3.5,84,0.00,BKN,,0.00,211.0,WeatherDisplay:10.37,2013-09-04 15:50:00,
2013-09-04 10:55:00,65.7,60.1,30.12,East,89,3.0,3.0,82,0.00,BKN,,0.00,153.0,WeatherDisplay:10.37,2013-09-04 15:55:00,
2013-09-04 11:00:00,66.2,60.9,30.12,East,92,2.3,2.3,83,0.00,BKN,,0.00,199.0,WeatherDisplay:10.37,2013-09-04 16:00:00,
2013-09-04 11:05:00,66.5,61.2,30.12,East,92,2.3,2.3,83,0.00,CLR,,0.00,192.0,WeatherDisplay:10.37,2013-09-04 16:05:00,
2013-09-04 11:10:00,66.5,60.5,30.12,East,88,3.5,3.5,81,0.00,CLR,,0.00,156.0,WeatherDisplay:10.37,2013-09-04 16:10:00,
2013-09-04 11:15:00,66.6,59.9,30.12,East,98,3.5,3.5,79,0.00,CLR,,0.00,111.0,WeatherDisplay:10.37,2013-09-04 16:15:00,
2013-09-04 11:20:00,66.8,60.8,30.12,East,99,1.1,0.0,81,0.00,CLR,,0.00,132.0,WeatherDisplay:10.37,2013-09-04 16:20:00,
2013-09-04 11:25:00,67.0,61.0,30.12,ESE,107,3.5,3.5,81,0.00,CLR,,0.00,533.0,WeatherDisplay:10.37,2013-09-04 16:25:00,
2013-09-04 11:30:00,67.4,60.7,30.12,East,92,0.0,0.0,79,0.00,CLR,,0.00,735.0,WeatherDisplay:10.37,2013-09-04 16:30:00,
2013-09-04 11:35:00,67.8,60.3,30.12,East,96,3.0,3.0,77,0.00,CLR,,0.00,721.0,WeatherDisplay:10.37,2013-09-04 16:35:00,
2013-09-04 11:40:00,68.1,61.0,30.12,East,91,0.0,0.0,78,0.00,CLR,,0.00,666.0,WeatherDisplay:10.37,2013-09-04 16:40:00,
2013-09-04 11:45:00,68.4,59.8,30.12,ESE,108,3.5,3.5,74,0.00,CLR,,0.00,673.0,WeatherDisplay:10.37,2013-09-04 16:45:00,
2013-09-04 11:50:00,68.8,60.6,30.12,ESE,108,1.1,0.0,75,0.00,CLR,,0.00,744.0,WeatherDisplay:10.37,2013-09-04 16:50:00,
2013-09-04 11:55:00,69.4,60.4,30.12,East,99,2.3,2.3,73,0.00,CLR,,0.00,715.0,WeatherDisplay:10.37,2013-09-04 16:55:00,
2013-09-04 12:00:00,69.5,60.8,30.12,SSE,150,1.0,1.0,74,0.00,CLR,,0.00,758.0,WeatherDisplay:10.37,2013-09-04 17:00:00,
2013-09-04 12:05:00,70.0,60.9,30.12,NW,312,2.3,0.0,73,0.00,CLR,,0.00,798.0,WeatherDisplay:10.37,2013-09-04 17:05:00,
2013-09-04 12:10:00,70.3,62.4,30.12,ENE,67,3.5,3.5,76,0.00,CLR,,0.00,838.0,WeatherDisplay:10.37,2013-09-04 17:10:00,
2013-09-04 12:15:00,70.5,61.0,30.12,ENE,61,3.5,3.5,72,0.00,CLR,,0.00,830.0,WeatherDisplay:10.37,2013-09-04 17:15:00,
2013-09-04 12:20:00,70.9,60.6,30.12,NE,55,3.5,3.5,70,0.00,CLR,,0.00,814.0,WeatherDisplay:10.37,2013-09-04 17:20:00,
2013-09-04 12:25:00,71.4,61.9,30.12,NNE,13,1.1,1.1,72,0.00,CLR,,0.00,854.0,WeatherDisplay:10.37,2013-09-04 17:25:00,
2013-09-04 12:30:00,71.7,61.8,30.12,ESE,114,1.1,0.0,71,0.00,CLR,,0.00,740.0,WeatherDisplay:10.37,2013-09-04 17:30:00,
2013-09-04 12:36:00,72.1,60.5,30.12,NNE,15,2.0,2.0,67,0.00,CLR,,0.00,728.0,WeatherDisplay:10.37,2013-09-04 17:36:00,
2013-09-04 12:41:00,72.3,60.7,30.12,ENE,67,1.1,1.1,67,0.00,CLR,,0.00,642.0,WeatherDisplay:10.37,2013-09-04 17:41:00,
2013-09-04 12:46:00,72.3,61.1,30.12,North,5,2.3,2.3,68,0.00,CLR,,0.00,708.0,WeatherDisplay:10.37,2013-09-04 17:46:00,
2013-09-04 12:51:00,72.4,60.4,30.12,North,5,2.0,2.0,66,0.00,CLR,,0.00,705.0,WeatherDisplay:10.37,2013-09-04 17:51:00,
2013-09-04 12:56:00,72.6,61.8,30.12,North,360,0.0,0.3,69,0.00,CLR,,0.00,789.0,WeatherDisplay:10.37,2013-09-04 17:56:00,
2013-09-04 13:01:00,72.6,61.4,30.12,NNE,16,1.1,1.1,68,0.00,CLR,,0.00,508.0,WeatherDisplay:10.37,2013-09-04 18:01:00,
2013-09-04 13:06:00,72.1,61.0,30.12,ENE,71,2.3,2.3,68,0.00,CLR,,0.00,536.0,WeatherDisplay:10.37,2013-09-04 18:06:00,
2013-09-04 13:11:00,72.1,62.2,30.12,NE,47,2.3,0.0,71,0.00,CLR,,0.00,789.0,WeatherDisplay:10.37,2013-09-04 18:11:00,
2013-09-04 13:16:00,72.5,60.5,30.12,NNE,29,1.1,1.1,66,0.00,CLR,,0.00,879.0,WeatherDisplay:10.37,2013-09-04 18:16:00,
2013-09-04 13:21:00,72.7,61.5,30.12,West,261,2.3,2.3,68,0.00,CLR,,0.00,840.0,WeatherDisplay:10.37,2013-09-04 18:21:00,
2013-09-04 13:26:00,73.3,61.7,30.12,North,9,2.0,2.0,67,0.00,CLR,,0.00,831.0,WeatherDisplay:10.37,2013-09-04 18:26:00,
2013-09-04 13:31:00,73.6,61.1,30.12,NE,44,2.3,2.3,65,0.00,CLR,,0.00,831.0,WeatherDisplay:10.37,2013-09-04 18:31:00,
2013-09-04 13:36:00,73.6,61.1,30.12,NW,307,2.3,0.0,65,0.00,CLR,,0.00,835.0,WeatherDisplay:10.37,2013-09-04 18:36:00,
2013-09-04 13:41:00,73.9,60.5,30.12,NNE,21,2.0,2.0,63,0.00,CLR,,0.00,835.0,WeatherDisplay:10.37,2013-09-04 18:41:00,
2013-09-04 13:46:00,74.0,60.2,30.12,WNW,284,1.1,1.1,62,0.00,CLR,,0.00,846.0,WeatherDisplay:10.37,2013-09-04 18:46:00,
2013-09-04 13:51:00,74.2,60.8,30.12,West,270,2.0,2.0,63,0.00,CLR,,0.00,817.0,WeatherDisplay:10.37,2013-09-04 18:51:00,
2013-09-04 13:56:00,74.2,61.7,30.12,North,351,0.0,0.6,65,0.00,CLR,,0.00,837.0,WeatherDisplay:10.37,2013-09-04 18:56:00,
2013-09-04 14:01:00,74.2,60.3,30.12,NE,53,2.3,2.3,62,0.00,CLR,,0.00,828.0,WeatherDisplay:10.37,2013-09-04 19:01:00,
2013-09-04 14:06:00,74.1,58.9,30.12,NE,37,2.3,2.3,59,0.00,CLR,,0.00,817.0,WeatherDisplay:10.37,2013-09-04 19:06:00,
2013-09-04 14:11:00,73.8,60.9,30.11,ENE,69,1.1,1.1,64,0.00,CLR,,0.00,812.0,WeatherDisplay:10.37,2013-09-04 19:11:00,
2013-09-04 14:16:00,74.2,61.2,30.11,West,278,2.3,2.3,64,0.00,CLR,,0.00,812.0,WeatherDisplay:10.37,2013-09-04 19:16:00,
2013-09-04 14:21:00,74.5,59.2,30.11,NNW,328,1.1,1.1,59,0.00,CLR,,0.00,809.0,WeatherDisplay:10.37,2013-09-04 19:21:00,
2013-09-04 14:26:00,74.6,58.8,30.11,WSW,246,1.1,1.1,58,0.00,CLR,,0.00,805.0,WeatherDisplay:10.37,2013-09-04 19:26:00,
2013-09-04 14:31:00,74.3,57.1,30.11,West,277,3.5,3.5,55,0.00,CLR,,0.00,803.0,WeatherDisplay:10.37,2013-09-04 19:31:00,
2013-09-04 14:36:00,74.5,57.8,30.11,NE,35,3.5,0.0,56,0.00,CLR,,0.00,805.0,WeatherDisplay:10.37,2013-09-04 19:36:00,
2013-09-04 14:41:00,74.9,58.6,30.11,North,5,2.3,2.3,57,0.00,CLR,,0.00,693.0,WeatherDisplay:10.37,2013-09-04 19:41:00,
2013-09-04 14:46:00,74.9,60.1,30.11,NNE,14,1.1,1.1,60,0.00,CLR,,0.00,684.0,WeatherDisplay:10.37,2013-09-04 19:46:00,
2013-09-04 14:51:00,74.6,59.3,30.11,WSW,237,1.1,0.0,59,0.00,CLR,,0.00,631.0,WeatherDisplay:10.37,2013-09-04 19:51:00,
2013-09-04 14:56:00,74.6,57.9,30.11,North,360,1.1,1.1,56,0.00,CLR,,0.00,657.0,WeatherDisplay:10.37,2013-09-04 19:56:00,
2013-09-04 15:01:00,74.9,58.1,30.11,NNE,17,2.3,2.3,56,0.00,CLR,,0.00,642.0,WeatherDisplay:10.37,2013-09-04 20:01:00,
2013-09-04 15:06:00,74.9,57.6,30.11,WSW,241,1.0,1.0,55,0.00,CLR,,0.00,578.0,WeatherDisplay:10.37,2013-09-04 20:06:00,
2013-09-04 15:11:00,75.0,58.2,30.11,WSW,242,1.1,1.1,56,0.00,CLR,,0.00,671.0,WeatherDisplay:10.37,2013-09-04 20:11:00,
2013-09-04 15:16:00,75.1,60.3,30.11,North,351,2.0,2.0,60,0.00,CLR,,0.00,733.0,WeatherDisplay:10.37,2013-09-04 20:16:00,
2013-09-04 15:21:00,75.5,59.7,30.11,NE,47,2.0,2.0,58,0.00,CLR,,0.00,689.0,WeatherDisplay:10.37,2013-09-04 20:21:00,
2013-09-04 15:26:00,75.1,56.8,30.11,ENE,63,2.3,2.3,53,0.00,CLR,,0.00,687.0,WeatherDisplay:10.37,2013-09-04 20:26:00,
2013-09-04 15:31:00,74.2,58.5,30.11,East,85,3.5,3.5,58,0.00,CLR,,0.00,612.0,WeatherDisplay:10.37,2013-09-04 20:31:00,
2013-09-04 15:36:00,73.9,60.1,30.11,East,85,1.1,0.0,62,0.00,CLR,,0.00,589.0,WeatherDisplay:10.37,2013-09-04 20:36:00,
2013-09-04 15:41:00,74.3,58.1,30.11,NNE,28,1.0,1.0,57,0.00,CLR,,0.00,654.0,WeatherDisplay:10.37,2013-09-04 20:41:00,
2013-09-04 15:46:00,75.1,60.3,30.10,NNE,28,0.0,0.0,60,0.00,CLR,,0.00,587.0,WeatherDisplay:10.37,2013-09-04 20:46:00,
2013-09-04 15:51:00,75.5,58.2,30.11,NW,322,3.5,3.5,55,0.00,CLR,,0.00,577.0,WeatherDisplay:10.37,2013-09-04 20:51:00,
2013-09-04 15:56:00,75.6,56.7,30.11,East,98,2.3,2.3,52,0.00,CLR,,0.00,608.0,WeatherDisplay:10.37,2013-09-04 20:56:00,
2013-09-04 16:01:00,75.9,56.5,30.11,East,92,2.3,2.3,51,0.00,CLR,,0.00,545.0,WeatherDisplay:10.37,2013-09-04 21:01:00,
2013-09-04 16:06:00,76.0,56.6,30.11,ESE,115,1.1,1.1,51,0.00,CLR,,0.00,617.0,WeatherDisplay:10.37,2013-09-04 21:06:00,
2013-09-04 16:11:00,76.2,58.9,30.11,West,267,0.0,0.0,55,0.00,CLR,,0.00,596.0,WeatherDisplay:10.37,2013-09-04 21:11:00,
2013-09-04 16:16:00,76.6,58.7,30.11,NE,54,1.1,1.1,54,0.00,CLR,,0.00,548.0,WeatherDisplay:10.37,2013-09-04 21:16:00,
2013-09-04 16:21:00,76.0,57.6,30.11,NW,319,2.3,2.3,53,0.00,CLR,,0.00,359.0,WeatherDisplay:10.37,2013-09-04 21:21:00,
2013-09-04 16:26:00,75.5,55.0,30.11,West,271,1.0,1.3,49,0.00,CLR,,0.00,243.0,WeatherDisplay:10.37,2013-09-04 21:26:00,
2013-09-04 16:31:00,75.0,58.2,30.11,WSW,238,2.3,0.0,56,0.00,CLR,,0.00,246.0,WeatherDisplay:10.37,2013-09-04 21:31:00,
2013-09-04 16:36:00,74.7,58.9,30.11,West,269,0.0,0.0,58,0.00,CLR,,0.00,322.0,WeatherDisplay:10.37,2013-09-04 21:36:00,
2013-09-04 16:41:00,74.8,59.5,30.11,West,269,0.0,0.0,59,0.00,CLR,,0.00,369.0,WeatherDisplay:10.37,2013-09-04 21:41:00,
2013-09-04 16:46:00,74.9,56.6,30.11,NW,311,2.3,2.3,53,0.00,CLR,,0.00,429.0,WeatherDisplay:10.37,2013-09-04 21:46:00,
2013-09-04 16:51:00,74.8,56.0,30.11,NW,319,1.1,0.0,52,0.00,CLR,,0.00,158.0,WeatherDisplay:10.37,2013-09-04 21:51:00,
2013-09-04 16:56:00,74.4,56.2,30.11,North,5,1.1,1.1,53,0.00,CLR,,0.00,192.0,WeatherDisplay:10.37,2013-09-04 21:56:00,
2013-09-04 17:01:00,74.2,57.0,30.11,North,5,0.0,0.0,55,0.00,CLR,,0.00,443.0,WeatherDisplay:10.37,2013-09-04 22:01:00,
2013-09-04 17:06:00,74.4,57.7,30.11,North,360,0.0,0.0,56,0.00,CLR,,0.00,422.0,WeatherDisplay:10.37,2013-09-04 22:06:00,
2013-09-04 17:11:00,74.5,59.2,30.11,North,360,0.0,0.0,59,0.00,CLR,,0.00,329.0,WeatherDisplay:10.37,2013-09-04 22:11:00,
2013-09-04 17:17:00,74.4,57.7,30.11,NE,56,0.0,0.0,56,0.00,CLR,,0.00,329.0,WeatherDisplay:10.37,2013-09-04 22:17:00,
2013-09-04 17:22:00,73.9,57.7,30.11,NE,52,2.3,2.3,57,0.00,CLR,,0.00,79.0,WeatherDisplay:10.37,2013-09-04 22:22:00,
2013-09-04 17:27:00,73.4,55.7,30.11,East,88,2.3,2.3,54,0.00,CLR,,0.00,113.0,WeatherDisplay:10.37,2013-09-04 22:27:00,
2013-09-04 17:32:00,72.4,54.8,30.11,East,93,1.1,0.0,54,0.00,CLR,,0.00,86.0,WeatherDisplay:10.37,2013-09-04 22:32:00,
2013-09-04 17:37:00,71.7,56.1,30.11,East,92,0.0,0.0,58,0.00,CLR,,0.00,60.0,WeatherDisplay:10.37,2013-09-04 22:37:00,
2013-09-04 17:42:00,71.0,55.9,30.11,East,92,1.1,0.0,59,0.00,CLR,,0.00,56.0,WeatherDisplay:10.37,2013-09-04 22:42:00,
2013-09-04 17:47:00,70.4,56.3,30.11,East,92,1.1,0.0,61,0.00,CLR,,0.00,35.0,WeatherDisplay:10.37,2013-09-04 22:47:00,
2013-09-04 17:52:00,70.0,56.4,30.11,East,92,0.0,0.0,62,0.00,CLR,,0.00,37.0,WeatherDisplay:10.37,2013-09-04 22:52:00,
2013-09-04 17:57:00,69.6,56.9,30.11,East,92,0.0,0.0,64,0.00,CLR,,0.00,56.0,WeatherDisplay:10.37,2013-09-04 22:57:00,
2013-09-04 18:02:00,69.3,57.0,30.11,East,92,0.0,0.0,65,0.00,CLR,,0.00,30.0,WeatherDisplay:10.37,2013-09-04 23:02:00,
2013-09-04 18:07:00,68.9,57.1,30.12,East,92,0.0,0.0,66,0.00,CLR,,0.00,42.0,WeatherDisplay:10.37,2013-09-04 23:07:00,
2013-09-04 18:12:00,68.4,56.2,30.12,East,92,0.0,0.0,65,0.00,CLR,,0.00,54.0,WeatherDisplay:10.37,2013-09-04 23:12:00,
2013-09-04 18:17:00,68.2,57.6,30.12,East,83,1.1,1.1,69,0.00,CLR,,0.00,42.0,WeatherDisplay:10.37,2013-09-04 23:17:00,
2013-09-04 18:22:00,68.0,57.4,30.12,ENE,73,0.0,0.0,69,0.00,CLR,,0.00,33.0,WeatherDisplay:10.37,2013-09-04 23:22:00,
2013-09-04 18:27:00,67.8,56.9,30.13,ENE,73,0.0,0.0,68,0.00,CLR,,0.00,33.0,WeatherDisplay:10.37,2013-09-04 23:27:00,
2013-09-04 18:32:00,67.5,57.0,30.13,ENE,73,0.0,0.0,69,0.00,CLR,,0.00,33.0,WeatherDisplay:10.37,2013-09-04 23:32:00,
2013-09-04 18:37:00,67.1,57.0,30.13,ENE,73,1.1,0.0,70,0.00,CLR,,0.00,26.0,WeatherDisplay:10.37,2013-09-04 23:37:00,
2013-09-04 18:42:00,66.7,56.2,30.13,ENE,73,0.0,0.0,69,0.00,CLR,,0.00,19.0,WeatherDisplay:10.37,2013-09-04 23:42:00,
2013-09-04 18:47:00,66.4,56.7,30.13,ENE,73,0.0,0.0,71,0.00,CLR,,0.00,16.0,WeatherDisplay:10.37,2013-09-04 23:47:00,
2013-09-04 18:52:00,66.0,57.1,30.13,ENE,73,0.0,0.0,73,0.00,CLR,,0.00,18.0,WeatherDisplay:10.37,2013-09-04 23:52:00,
2013-09-04 18:57:00,65.5,55.8,30.13,ENE,73,0.0,0.0,71,0.00,CLR,,0.00,14.0,WeatherDisplay:10.37,2013-09-04 23:57:00,
2013-09-04 19:02:00,65.2,55.6,30.13,ENE,73,0.0,0.0,71,0.00,CLR,,0.00,12.0,WeatherDisplay:10.37,2013-09-05 00:02:00,
2013-09-04 19:07:00,64.9,56.4,30.13,ENE,73,0.0,0.0,74,0.00,CLR,,0.00,7.0,WeatherDisplay:10.37,2013-09-05 00:07:00,
2013-09-04 19:12:00,64.7,56.2,30.13,ENE,73,0.0,0.0,74,0.00,CLR,,0.00,7.0,WeatherDisplay:10.37,2013-09-05 00:12:00,
2013-09-04 19:17:00,64.3,56.2,30.13,ENE,73,0.0,0.0,75,0.00,CLR,,0.00,5.0,WeatherDisplay:10.37,2013-09-05 00:17:00,
2013-09-04 19:22:00,63.9,55.8,30.13,ENE,73,0.0,0.0,75,0.00,CLR,,0.00,0.0,WeatherDisplay:10.37,2013-09-05 00:22:00,
2013-09-04 19:27:00,63.4,55.7,30.13,ENE,73,0.0,0.0,76,0.00,CLR,,0.00,0.0,WeatherDisplay:10.37,2013-09-05 00:27:00,
2013-09-04 19:32:00,63.0,55.7,30.13,ENE,73,0.0,0.0,77,0.00,CLR,,0.00,0.0,WeatherDisplay:10.37,2013-09-05 00:32:00,
2013-09-04 19:37:00,62.6,55.3,30.13,ENE,73,0.0,0.0,77,0.00,CLR,,0.00,0.0,WeatherDisplay:10.37,2013-09-05 00:37:00,
2013-09-04 19:42:00,62.2,54.9,30.13,ENE,73,0.0,0.0,77,0.00,CLR,,0.00,0.0,WeatherDisplay:10.37,2013-09-05 00:42:00,
2013-09-04 19:47:00,61.7,55.1,30.14,ENE,73,0.0,0.0,79,0.00,CLR,,0.00,0.0,WeatherDisplay:10.37,2013-09-05 00:47:00,
2013-09-04 19:52:00,61.3,55.1,30.14,ENE,73,0.0,0.0,80,0.00,CLR,,0.00,0.0,WeatherDisplay:10.37,2013-09-05 00:52:00,
2013-09-04 19:57:00,60.6,54.4,30.14,ENE,73,0.0,0.0,80,0.00,CLR,,0.00,0.0,WeatherDisplay:10.37,2013-09-05 00:57:00,
2013-09-04 20:02:00,60.0,54.2,30.14,ENE,73,0.0,0.0,81,0.00,CLR,,0.00,0.0,WeatherDisplay:10.37,2013-09-05 01:02:00,
2013-09-04 20:07:00,59.5,54.0,30.14,ENE,73,0.0,0.0,82,0.00,CLR,,0.00,0.0,WeatherDisplay:10.37,2013-09-05 01:07:00,
2013-09-04 20:12:00,59.0,53.8,30.14,ENE,73,0.0,0.0,83,0.00,CLR,,0.00,0.0,WeatherDisplay:10.37,2013-09-05 01:12:00,
2013-09-04 20:17:00,58.4,53.6,30.15,ENE,73,0.0,0.0,84,0.00,CLR,,0.00,0.0,WeatherDisplay:10.37,2013-09-05 01:17:00,
2013-09-04 20:22:00,58.0,53.5,30.15,ENE,73,0.0,0.0,85,0.00,CLR,,0.00,0.0,WeatherDisplay:10.37,2013-09-05 01:22:00,
2013-09-04 20:27:00,57.7,53.5,30.15,ENE,73,0.0,0.0,86,0.00,CLR,,0.00,0.0,WeatherDisplay:10.37,2013-09-05 01:27:00,
2013-09-04 20:32:00,57.2,53.0,30.15,ENE,73,0.0,0.0,86,0.00,CLR,,0.00,0.0,WeatherDisplay:10.37,2013-09-05 01:32:00,
2013-09-04 20:37:00,56.9,53.1,30.15,ENE,73,0.0,0.0,87,0.00,CLR,,0.00,0.0,WeatherDisplay:10.37,2013-09-05 01:37:00,
2013-09-04 20:42:00,56.7,52.9,30.16,ENE,73,0.0,0.0,87,0.00,CLR,,0.00,0.0,WeatherDisplay:10.37,2013-09-05 01:42:00,
2013-09-04 20:47:00,56.5,53.0,30.16,ENE,73,0.0,0.0,88,0.00,CLR,,0.00,0.0,WeatherDisplay:10.37,2013-09-05 01:47:00,
2013-09-04 20:52:00,56.2,52.7,30.16,ENE,73,0.0,0.0,88,0.00,CLR,,0.00,0.0,WeatherDisplay:10.37,2013-09-05 01:52:00,
2013-09-04 20:57:00,55.8,52.6,30.15,ENE,73,0.0,0.0,89,0.00,CLR,,0.00,0.0,WeatherDisplay:10.37,2013-09-05 01:57:00,
2013-09-04 21:02:00,55.5,52.3,30.16,ENE,73,0.0,0.0,89,0.00,CLR,,0.00,0.0,WeatherDisplay:10.37,2013-09-05 02:02:00,
2013-09-04 21:07:00,55.3,52.1,30.16,ENE,73,0.0,0.0,89,0.00,CLR,,0.00,0.0,WeatherDisplay:10.37,2013-09-05 02:07:00,
2013-09-04 21:12:00,54.9,52.0,30.16,ENE,73,0.0,0.0,90,0.00,CLR,,0.00,0.0,WeatherDisplay:10.37,2013-09-05 02:12:00,
2013-09-04 21:17:00,54.5,51.6,30.16,ENE,73,0.0,0.0,90,0.00,CLR,,0.00,0.0,WeatherDisplay:10.37,2013-09-05 02:17:00,
2013-09-04 21:22:00,54.2,51.3,30.16,ENE,73,0.0,0.0,90,0.00,CLR,,0.00,0.0,WeatherDisplay:10.37,2013-09-05 02:22:00,
2013-09-04 21:27:00,53.9,51.3,30.16,ENE,73,0.0,0.0,91,0.00,CLR,,0.00,0.0,WeatherDisplay:10.37,2013-09-05 02:27:00,
2013-09-04 21:32:00,53.7,51.1,30.17,ENE,73,0.0,0.0,91,0.00,CLR,,0.00,0.0,WeatherDisplay:10.37,2013-09-05 02:32:00,
2013-09-04 21:37:00,53.4,50.8,30.16,ENE,73,0.0,0.0,91,0.00,CLR,,0.00,0.0,WeatherDisplay:10.37,2013-09-05 02:37:00,
2013-09-04 21:42:00,53.2,50.6,30.16,ENE,73,0.0,0.0,91,0.00,CLR,,0.00,0.0,WeatherDisplay:10.37,2013-09-05 02:42:00,
2013-09-04 21:47:00,53.0,50.4,30.16,ENE,73,0.0,0.0,91,0.00,CLR,,0.00,0.0,WeatherDisplay:10.37,2013-09-05 02:47:00,
2013-09-04 21:52:00,52.8,50.5,30.17,ENE,73,0.0,0.0,92,0.00,CLR,,0.00,0.0,WeatherDisplay:10.37,2013-09-05 02:52:00,
2013-09-04 21:57:00,52.5,50.2,30.17,ENE,73,0.0,0.0,92,0.00,CLR,,0.00,0.0,WeatherDisplay:10.37,2013-09-05 02:57:00,
2013-09-04 22:02:00,52.3,50.0,30.17,ENE,73,0.0,0.0,92,0.00,CLR,,0.00,0.0,WeatherDisplay:10.37,2013-09-05 03:02:00,
2013-09-04 22:07:00,52.1,49.8,30.17,ENE,73,0.0,0.0,92,0.00,CLR,,0.00,0.0,WeatherDisplay:10.37,2013-09-05 03:07:00,
2013-09-04 22:12:00,51.9,49.6,30.17,ENE,73,0.0,0.0,92,0.00,CLR,,0.00,0.0,WeatherDisplay:10.37,2013-09-05 03:12:00,
2013-09-04 22:18:00,51.6,49.4,30.17,ENE,73,0.0,0.0,92,0.00,CLR,,0.00,0.0,WeatherDisplay:10.37,2013-09-05 03:18:00,
2013-09-04 22:23:00,51.5,49.3,30.17,ENE,73,0.0,0.0,92,0.00,CLR,,0.00,0.0,WeatherDisplay:10.37,2013-09-05 03:23:00,
2013-09-04 22:28:00,51.3,49.3,30.17,ENE,73,0.0,0.0,93,0.00,CLR,,0.00,0.0,WeatherDisplay:10.37,2013-09-05 03:28:00,
2013-09-04 22:33:00,51.1,49.1,30.17,ENE,73,0.0,0.0,93,0.00,CLR,,0.00,0.0,WeatherDisplay:10.37,2013-09-05 03:33:00,
2013-09-04 22:38:00,50.9,48.9,30.17,ENE,73,0.0,0.0,93,0.00,CLR,,0.00,0.0,WeatherDisplay:10.37,2013-09-05 03:38:00,
2013-09-04 22:43:00,50.7,48.7,30.17,ENE,73,0.0,0.0,93,0.00,CLR,,0.00,0.0,WeatherDisplay:10.37,2013-09-05 03:43:00,
2013-09-04 22:48:00,50.4,48.5,30.18,ENE,73,0.0,0.0,93,0.00,CLR,,0.00,0.0,WeatherDisplay:10.37,2013-09-05 03:48:00,
2013-09-04 22:53:00,50.2,48.3,30.18,ENE,73,0.0,0.0,93,0.00,CLR,,0.00,0.0,WeatherDisplay:10.37,2013-09-05 03:53:00,
2013-09-04 22:58:00,50.1,48.2,30.18,ENE,73,0.0,0.0,93,0.00,CLR,,0.00,0.0,WeatherDisplay:10.37,2013-09-05 03:58:00,
2013-09-04 23:01:00,50.0,48.1,30.18,ENE,73,0.0,0.0,93,0.00,CLR,,0.00,0.0,WeatherDisplay:10.37,2013-09-05 04:01:00,
2013-09-04 23:06:00,49.8,47.9,30.18,ENE,73,0.0,0.0,93,0.00,CLR,,0.00,0.0,WeatherDisplay:10.37,2013-09-05 04:06:00,
2013-09-04 23:11:00,49.6,47.7,30.18,ENE,73,0.0,0.0,93,0.00,CLR,,0.00,0.0,WeatherDisplay:10.37,2013-09-05 04:11:00,
2013-09-04 23:16:00,49.5,47.6,30.18,ENE,73,0.0,0.0,93,0.00,CLR,,0.00,0.0,WeatherDisplay:10.37,2013-09-05 04:16:00,
2013-09-04 23:21:00,49.4,47.5,30.18,ENE,73,0.0,0.0,93,0.00,CLR,,0.00,0.0,WeatherDisplay:10.37,2013-09-05 04:21:00,
2013-09-04 23:26:00,49.1,47.4,30.19,ENE,73,0.0,0.0,94,0.00,CLR,,0.00,0.0,WeatherDisplay:10.37,2013-09-05 04:26:00,
2013-09-04 23:32:00,49.0,47.3,30.18,ENE,73,0.0,0.0,94,0.00,CLR,,0.00,0.0,WeatherDisplay:10.37,2013-09-05 04:32:00,
2013-09-04 23:37:00,48.8,46.9,30.18,ENE,73,0.0,0.0,93,0.00,CLR,,0.00,0.0,WeatherDisplay:10.37,2013-09-05 04:37:00,
2013-09-04 23:42:00,48.7,46.8,30.19,ENE,73,0.0,0.0,93,0.00,CLR,,0.00,0.0,WeatherDisplay:10.37,2013-09-05 04:42:00,
2013-09-04 23:47:00,48.5,46.9,30.19,ENE,73,0.0,0.0,94,0.00,CLR,,0.00,0.0,WeatherDisplay:10.37,2013-09-05 04:47:00,
2013-09-04 23:52:00,48.4,46.8,30.19,ENE,73,0.0,0.0,94,0.00,CLR,,0.00,0.0,WeatherDisplay:10.37,2013-09-05 04:52:00,
2013-09-04 23:57:00,48.2,46.6,30.19,ENE,73,0.0,0.0,94,0.00,CLR,,0.00,0.0,WeatherDisplay:10.37,2013-09-05 04:57:00,